Vremea acum in Zlatna - Romania

Vrei sa afli care e starea vremii acum in Arad - Romania? Dorim sa iti furnizam starea vremii pentru Arad - Romania. Starea vremii Arad - Romania pentru astazi.

Vremea acum in Zlatna

Temperatura: 13.3 °C

Este: Acoperit de nori
Se simte ca: 14 °C
Innorat: 100 %
Precipitatii: %
Presiune atmosferica: 1015 hPa
Umiditate: 83%
Vizibilitate: 10 km
Vantul bate din W cu 3.6 km/h

Evolutia vremii in Zlatna pe ore

Ora: 22:00
Temperatura: °C
Sansa de precipitatii: %
Ora Descriere Temp Se simte Precipitatii Umiditate Vant
00:00Senin12.6°12.7°0%65%WSW 5 KM/H
01:00Senin11.7°11.7°0%69%WSW 1.1 KM/H
02:00Senin11.2°11.2°0%70%W 2.5 KM/H
03:00Senin11.3°11.3°0%70%W 2.2 KM/H
04:00Senin11.1°11.1°0%71%SSW 1.4 KM/H
05:00Senin10.6°10.6°0%74%E 0.7 KM/H
06:00Senin10.1°10.1°0%76%N 1.1 KM/H
07:00Senin11.3°11.3°0%75%NNE 1.1 KM/H
08:0015.2°15.2°0%69%W 0.4 KM/H
09:0017.7°17.7°0%63%ESE 1.4 KM/H
10:00Patchy rain nearby19.6°19.6°76%58%SSW 2.5 KM/H
11:00Patchy rain nearby21.3°21.3°100%54%SW 5.4 KM/H
12:00Thundery outbreaks in nearby22.6°24.6°100%49%SW 9.4 KM/H
13:00Thundery outbreaks in nearby22.3°24.5°86%51%SW 15.5 KM/H
14:00Burniță ușoară18.5°18.5°100%66%SW 14.4 KM/H
15:00Ploi usoare19.6°19.6°100%67%WSW 8.6 KM/H
16:00Ploi usoare20.3°20.3°100%64%W 8.6 KM/H
17:00Ploi usoare20.9°20.9°100%60%W 13.7 KM/H
18:00Patchy rain nearby19.7°19.7°100%67%W 15.1 KM/H
19:00Patchy rain nearby18.4°18.4°100%73%W 12.6 KM/H
20:00Patchy rain nearby15.6°15.6°100%79%W 11.5 KM/H
21:00Patchy rain nearby13.8°13.7°100%82%W 6.5 KM/H
22:00Acoperit de nori13.3°14°0%83%W 3.6 KM/H
23:00Patchy rain nearby13.7°13.7°78%83%W 1.8 KM/H




tutorials